createdAt,value
2018-04-25T00:01:23.377Z,81.55
2018-04-25T00:03:51.564Z,75.95
2018-04-25T00:06:19.622Z,78.80
2018-04-25T00:08:47.519Z,78.97
2018-04-25T00:11:16.220Z,82.20
2018-04-25T00:16:18.249Z,82.18
2018-04-25T00:18:46.168Z,80.62
2018-04-25T00:21:14.002Z,79.53
2018-04-25T00:23:42.666Z,79.97
2018-04-25T00:26:10.676Z,80.68
2018-04-25T00:28:38.619Z,78.18
2018-04-25T00:31:06.493Z,79.85
2018-04-25T00:33:34.471Z,76.68
2018-04-25T00:36:03.089Z,78.45
2018-04-25T00:38:31.081Z,78.47
2018-04-25T00:40:59.197Z,77.93
2018-04-25T00:43:27.913Z,79.28
2018-04-25T00:45:55.987Z,77.62
2018-04-25T00:48:23.959Z,79.37
2018-04-25T00:50:51.882Z,79.47
2018-04-25T00:53:20.546Z,80.60
2018-04-25T00:55:48.383Z,76.32
2018-04-25T00:58:16.284Z,78.15
2018-04-25T01:00:44.319Z,79.40
2018-04-25T01:03:12.391Z,77.37
2018-04-25T01:05:40.298Z,78.97
2018-04-25T01:08:08.213Z,76.00
2018-04-25T01:10:36.428Z,77.80
2018-04-25T01:13:04.489Z,77.12
2018-04-25T01:15:32.571Z,76.78
2018-04-25T01:18:00.531Z,76.97
2018-04-25T01:20:28.402Z,77.40
2018-04-25T01:22:56.473Z,76.72
2018-04-25T01:25:33.305Z,79.82
2018-04-25T01:28:08.089Z,76.75
2018-04-25T01:30:37.069Z,76.65
2018-04-25T01:33:05.039Z,78.50
2018-04-25T01:35:32.969Z,77.40
2018-04-25T01:38:06.722Z,77.68
2018-04-25T01:40:34.576Z,77.25
2018-04-25T01:43:09.153Z,78.72
2018-04-25T01:45:52.706Z,77.75
2018-04-25T01:49:12.954Z,80.32
2018-04-25T01:51:53.717Z,78.45
2018-04-25T01:54:34.256Z,80.50
2018-04-25T01:57:14.102Z,77.05
2018-04-25T01:59:53.833Z,78.55
2018-04-25T02:02:21.175Z,80.43
2018-04-25T02:04:49.275Z,80.00
2018-04-25T02:07:17.255Z,82.12
2018-04-25T02:09:45.313Z,79.62
2018-04-25T02:12:13.179Z,77.12
2018-04-25T02:14:41.174Z,80.38
2018-04-25T02:17:09.935Z,77.75
2018-04-25T02:19:37.903Z,79.72
2018-04-25T02:22:05.929Z,79.07
2018-04-25T02:24:33.844Z,78.35
2018-04-25T02:27:01.828Z,78.78
2018-04-25T02:29:29.761Z,80.32
2018-04-25T02:31:57.756Z,78.40
2018-04-25T02:34:25.701Z,81.30
2018-04-25T02:36:53.687Z,78.47
2018-04-25T02:39:21.752Z,83.50
2018-04-25T02:41:49.620Z,79.93
2018-04-25T02:44:17.587Z,83.53
2018-04-25T02:46:45.453Z,79.93
2018-04-25T02:49:13.401Z,82.60
2018-04-25T02:51:41.234Z,80.05
2018-04-25T02:54:09.019Z,79.93
2018-04-25T02:56:36.902Z,79.25
2018-04-25T02:59:04.732Z,79.62
2018-04-25T03:01:32.629Z,80.28
2018-04-25T03:04:00.527Z,77.47
2018-04-25T03:06:28.468Z,81.55
2018-04-25T03:08:56.364Z,77.57
2018-04-25T03:11:24.166Z,80.95
2018-04-25T03:13:51.986Z,81.05
2018-04-25T03:16:19.947Z,81.72
2018-04-25T03:18:47.918Z,80.47
2018-04-25T03:21:15.887Z,80.75
2018-04-25T03:23:44.063Z,78.50
2018-04-25T03:26:12.043Z,79.20
2018-04-25T03:28:39.869Z,82.80
2018-04-25T03:31:07.984Z,79.47
2018-04-25T03:33:35.797Z,78.28
2018-04-25T03:36:03.633Z,83.32
2018-04-25T03:38:32.176Z,81.37
2018-04-25T03:41:00.203Z,82.15
2018-04-25T03:43:28.081Z,83.47
2018-04-25T03:45:55.953Z,80.82
2018-04-25T03:48:23.797Z,83.10
2018-04-25T03:50:51.583Z,81.43
2018-04-25T03:53:19.475Z,84.07
2018-04-25T03:55:47.446Z,81.47
2018-04-25T03:58:15.252Z,81.40
2018-04-25T04:00:43.056Z,82.47
2018-04-25T04:03:10.859Z,82.20
2018-04-25T04:05:39.467Z,83.82
2018-04-25T04:08:07.370Z,81.07
2018-04-25T04:10:35.443Z,82.12
2018-04-25T04:13:03.293Z,83.60
2018-04-25T04:15:31.264Z,81.65
2018-04-25T04:17:59.280Z,83.37
2018-04-25T04:20:27.256Z,83.60
2018-04-25T04:22:56.131Z,81.00
2018-04-25T04:25:23.987Z,85.15
2018-04-25T04:27:51.959Z,81.78
2018-04-25T04:30:19.925Z,85.78
2018-04-25T04:32:47.892Z,80.78
2018-04-25T04:35:15.987Z,83.43
2018-04-25T04:37:44.610Z,81.87
2018-04-25T04:40:12.517Z,83.68
2018-04-25T04:42:40.695Z,84.13
2018-04-25T04:45:10.191Z,82.47
2018-04-25T04:47:37.996Z,83.57
2018-04-25T04:50:06.584Z,83.20
2018-04-25T04:52:34.409Z,83.55
2018-04-25T04:55:02.258Z,82.65
2018-04-25T04:57:30.091Z,84.32
2018-04-25T04:59:57.907Z,82.45
2018-04-25T05:02:25.743Z,85.70
2018-04-25T05:04:53.559Z,80.75
2018-04-25T05:07:22.171Z,85.32
2018-04-25T05:09:49.980Z,82.07
2018-04-25T05:12:17.905Z,84.22
2018-04-25T05:14:45.723Z,82.22
2018-04-25T05:17:13.789Z,81.63
2018-04-25T05:19:41.754Z,84.00
2018-04-25T05:22:09.723Z,84.85
2018-04-25T05:24:37.614Z,82.12
2018-04-25T05:27:05.466Z,83.18
2018-04-25T05:29:33.286Z,82.40
2018-04-25T05:32:01.173Z,84.18
2018-04-25T05:34:28.975Z,88.70
2018-04-25T05:36:57.739Z,86.37
2018-04-25T05:39:25.640Z,89.87
2018-04-25T05:41:54.531Z,85.97
2018-04-25T05:44:23.394Z,88.10
2018-04-25T05:46:51.218Z,88.85
2018-04-25T05:49:19.114Z,92.68
2018-04-25T05:51:47.203Z,97.70
2018-04-25T05:54:15.155Z,94.47
2018-04-25T05:56:43.121Z,94.82
2018-04-25T05:59:11.100Z,95.57
2018-04-25T06:01:39.164Z,95.97
2018-04-25T06:04:07.135Z,97.28
2018-04-25T06:06:35.103Z,95.53
2018-04-25T06:09:03.037Z,97.50
2018-04-25T06:11:30.946Z,93.80
2018-04-25T06:13:58.922Z,92.88
2018-04-25T06:16:26.947Z,92.97
2018-04-25T06:18:54.787Z,91.75
2018-04-25T06:21:22.664Z,94.75
2018-04-25T06:23:50.779Z,95.12
2018-04-25T06:26:18.640Z,94.45
2018-04-25T06:28:46.460Z,90.32
2018-04-25T06:31:14.854Z,91.15
2018-04-25T06:33:43.668Z,94.18
2018-04-25T06:36:11.652Z,96.90
2018-04-25T06:38:39.817Z,95.05
2018-04-25T06:41:07.884Z,93.72
2018-04-25T06:43:35.866Z,86.63
2018-04-25T06:46:03.807Z,88.15
2018-04-25T06:48:31.902Z,88.40
2018-04-25T06:51:00.038Z,89.37
2018-04-25T06:53:28.052Z,88.22
2018-04-25T06:55:55.898Z,87.70
2018-04-25T06:58:23.760Z,88.25
2018-04-25T07:00:51.681Z,85.95
2018-04-25T07:03:19.494Z,87.12
2018-04-25T07:05:47.350Z,85.97
2018-04-25T07:08:15.296Z,86.37
2018-04-25T07:10:43.910Z,83.75
2018-04-25T07:13:11.806Z,86.40
2018-04-25T07:15:40.429Z,85.40
2018-04-25T07:18:08.595Z,87.95
2018-04-25T07:20:36.606Z,82.55
2018-04-25T07:23:04.454Z,84.75
2018-04-25T07:25:32.290Z,87.70
2018-04-25T07:28:00.118Z,85.25
2018-04-25T07:30:27.997Z,85.80
2018-04-25T07:32:56.613Z,86.50
2018-04-25T07:35:24.592Z,86.68
2018-04-25T07:37:53.211Z,84.28
2018-04-25T07:40:21.025Z,86.45
2018-04-25T07:42:48.858Z,85.07
2018-04-25T07:45:16.761Z,86.82
2018-04-25T07:47:44.591Z,86.05
2018-04-25T07:50:12.489Z,82.07
2018-04-25T07:52:40.481Z,82.68
2018-04-25T07:55:08.304Z,86.55
2018-04-25T08:08:43.894Z,86.28
2018-04-25T08:11:11.748Z,83.32
2018-04-25T08:13:51.603Z,80.82
2018-04-25T08:16:31.537Z,84.30
2018-04-25T08:19:20.204Z,83.25
2018-04-25T08:21:48.198Z,81.10
2018-04-25T08:24:16.857Z,84.80
2018-04-25T08:26:44.828Z,83.70
2018-04-25T08:29:12.723Z,89.43
2018-04-25T08:31:41.496Z,87.22
2018-04-25T08:34:09.334Z,79.03
2018-04-25T08:36:38.031Z,83.65
2018-04-25T08:39:06.007Z,82.20
2018-04-25T08:41:34.790Z,81.93
2018-04-25T08:44:02.845Z,81.30
2018-04-25T08:46:30.889Z,86.53
2018-04-25T08:48:58.901Z,80.70
2018-04-25T08:51:26.867Z,84.07
2018-04-25T08:53:54.799Z,83.47
2018-04-25T08:56:23.636Z,83.10
2018-04-25T08:58:52.311Z,81.10
2018-04-25T09:01:20.172Z,85.32
2018-04-25T09:03:48.063Z,88.12
2018-04-25T09:06:16.863Z,87.07
2018-04-25T09:08:45.718Z,85.20
2018-04-25T09:11:13.548Z,86.57
2018-04-25T09:13:41.554Z,85.12
2018-04-25T09:16:09.485Z,84.05
2018-04-25T09:18:37.518Z,84.93
2018-04-25T09:21:06.175Z,86.70
2018-04-25T09:23:34.051Z,83.00
2018-04-25T09:26:02.005Z,79.93
2018-04-25T09:28:29.983Z,84.43
2018-04-25T09:30:57.953Z,80.40
2018-04-25T09:33:26.630Z,85.15
2018-04-25T09:35:54.584Z,82.12
2018-04-25T09:38:22.577Z,84.28
2018-04-25T09:40:50.550Z,82.90
2018-04-25T09:43:19.227Z,85.60
2018-04-25T09:45:47.295Z,82.65
2018-04-25T09:48:15.157Z,83.87
2018-04-25T09:50:43.245Z,83.32
2018-04-25T09:53:11.318Z,82.45
2018-04-25T09:55:39.269Z,84.93
2018-04-25T09:58:07.340Z,84.28
2018-04-25T10:00:40.837Z,83.70
2018-04-25T10:03:14.547Z,80.53
2018-04-25T10:05:43.228Z,81.55
2018-04-25T10:08:11.099Z,83.97
2018-04-25T10:10:39.063Z,81.37
2018-04-25T10:13:07.089Z,78.82
2018-04-25T10:15:34.955Z,81.85
2018-04-25T10:18:02.757Z,83.15
2018-04-25T10:20:30.556Z,81.18
2018-04-25T10:22:59.145Z,82.95
2018-04-25T10:25:27.792Z,83.20
2018-04-25T10:27:55.764Z,82.35
2018-04-25T10:30:23.836Z,85.65
2018-04-25T10:32:51.702Z,79.82
2018-04-25T10:35:19.668Z,85.80
2018-04-25T10:37:47.533Z,81.78
2018-04-25T10:40:15.406Z,83.90
2018-04-25T10:42:44.807Z,84.53
2018-04-25T10:45:12.684Z,83.72
2018-04-25T10:47:40.741Z,81.63
2018-04-25T10:50:08.813Z,83.10
2018-04-25T10:52:37.495Z,83.80
2018-04-25T10:55:05.367Z,82.53
2018-04-25T10:57:34.044Z,83.55
2018-04-25T11:00:02.836Z,81.12
2018-04-25T11:02:31.596Z,81.35
2018-04-25T11:04:59.487Z,83.32
2018-04-25T11:07:27.430Z,88.70
2018-04-25T11:09:55.321Z,80.62
2018-04-25T11:12:23.187Z,82.22
2018-04-25T11:14:51.263Z,82.35
2018-04-25T11:17:19.134Z,83.37
2018-04-25T11:19:46.990Z,84.07
2018-04-25T11:22:14.855Z,85.80
2018-04-25T11:24:42.725Z,80.07
2018-04-25T11:27:10.696Z,82.53
2018-04-25T11:29:38.560Z,78.15
2018-04-25T11:32:06.424Z,79.12
2018-04-25T11:34:34.291Z,81.28
2018-04-25T11:37:02.157Z,73.55
2018-04-25T11:39:30.022Z,81.18
2018-04-25T11:41:57.895Z,81.03
2018-04-25T11:44:25.751Z,78.25
2018-04-25T11:46:53.618Z,77.03
2018-04-25T11:49:21.488Z,79.20
2018-04-25T11:51:49.353Z,77.45
2018-04-25T11:54:17.220Z,78.15
2018-04-25T11:56:45.288Z,77.03
2018-04-25T11:59:13.156Z,75.05
2018-04-25T12:01:41.130Z,78.85
2018-04-25T12:04:09.177Z,75.57
2018-04-25T12:06:37.059Z,76.57
2018-04-25T12:09:05.028Z,73.62
2018-04-25T12:11:32.862Z,72.90
2018-04-25T12:14:00.762Z,83.22
2018-04-25T12:16:28.728Z,81.63
2018-04-25T12:18:56.518Z,80.82
2018-04-25T12:21:25.051Z,77.00
2018-04-25T12:23:52.945Z,76.68
2018-04-25T12:26:20.880Z,81.50
2018-04-25T12:28:48.774Z,80.25
2018-04-25T12:31:16.640Z,81.97
2018-04-25T12:33:44.506Z,83.80
2018-04-25T12:36:12.293Z,79.80
2018-04-25T12:38:40.105Z,80.57
2018-04-25T12:41:07.971Z,79.70
2018-04-25T12:43:35.773Z,78.68
2018-04-25T12:46:03.594Z,80.85
2018-04-25T12:48:31.360Z,80.55
2018-04-25T12:50:59.192Z,80.65
2018-04-25T12:53:27.848Z,85.18
2018-04-25T12:55:55.715Z,81.68
2018-04-25T12:58:23.581Z,87.03
2018-04-25T13:00:51.649Z,81.93
2018-04-25T13:03:19.617Z,84.35
2018-04-25T13:05:47.484Z,82.20
2018-04-25T13:08:15.351Z,81.80
2018-04-25T13:10:44.037Z,82.57
2018-04-25T13:13:11.900Z,80.97
2018-04-25T13:15:39.767Z,82.85
2018-04-25T13:18:07.605Z,81.28
2018-04-25T13:20:35.607Z,80.40
2018-04-25T13:23:03.468Z,78.87
2018-04-25T13:25:31.436Z,80.40
2018-04-25T13:27:59.307Z,84.53
2018-04-25T13:30:27.337Z,81.30
2018-04-25T13:32:55.242Z,82.82
2018-04-25T13:35:23.104Z,82.22
2018-04-25T13:37:51.820Z,81.15
2018-04-25T13:40:20.584Z,83.12
2018-04-25T13:42:49.267Z,80.72
2018-04-25T13:45:17.131Z,82.15
2018-04-25T13:47:45.818Z,83.30
2018-04-25T13:50:13.684Z,83.87
2018-04-25T13:52:41.625Z,79.80
2018-04-25T13:55:09.434Z,81.25
2018-04-25T13:57:37.225Z,80.80
2018-04-25T14:00:05.145Z,80.60
2018-04-25T14:02:32.928Z,81.72
2018-04-25T14:05:00.876Z,83.03
2018-04-25T14:07:28.743Z,79.15
2018-04-25T14:09:56.611Z,77.80
2018-04-25T14:12:24.401Z,80.80
2018-04-25T14:14:52.988Z,79.12
2018-04-25T14:17:21.526Z,81.45
2018-04-25T14:19:49.334Z,80.30
2018-04-25T14:22:17.916Z,82.07
2018-04-25T14:24:46.501Z,78.95
2018-04-25T14:27:15.155Z,80.70
2018-04-25T14:29:43.020Z,79.47
2018-04-25T14:32:10.941Z,80.10
2018-04-25T14:34:38.772Z,81.63
2018-04-25T14:37:07.545Z,80.25
2018-04-25T14:39:35.411Z,80.50
2018-04-25T14:42:03.266Z,82.37
2018-04-25T14:44:31.071Z,81.63
2018-04-25T14:46:59.719Z,83.15
2018-04-25T14:49:27.590Z,81.30
2018-04-25T14:51:56.273Z,79.00
2018-04-25T14:54:24.140Z,84.28
2018-04-25T14:56:52.010Z,82.07
2018-04-25T14:59:19.972Z,82.47
2018-04-25T15:01:47.837Z,81.37
2018-04-25T15:04:15.709Z,82.35
2018-04-25T15:06:43.577Z,80.40
2018-04-25T15:09:11.615Z,82.30
2018-04-25T15:11:39.506Z,82.15
2018-04-25T15:14:08.397Z,82.60
2018-04-25T15:16:36.263Z,83.57
2018-04-25T15:19:04.132Z,82.50
2018-04-25T15:21:31.996Z,82.00
2018-04-25T15:23:59.969Z,79.95
2018-04-25T15:26:27.798Z,85.35
2018-04-25T15:28:55.576Z,81.05
2018-04-25T15:31:23.380Z,85.55
2018-04-25T15:33:51.944Z,82.43
2018-04-25T15:36:19.908Z,87.25
2018-04-25T15:38:47.730Z,86.37
2018-04-25T15:41:15.518Z,85.18
2018-04-25T15:43:43.294Z,83.80
2018-04-25T15:46:11.457Z,85.05
2018-04-25T15:48:39.313Z,85.70
2018-04-25T15:51:07.211Z,85.00
2018-04-25T15:53:35.061Z,83.75
2018-04-25T15:56:03.702Z,83.93
2018-04-25T15:58:31.477Z,84.35
2018-04-25T16:00:59.270Z,84.45
2018-04-25T16:03:27.159Z,89.62
2018-04-25T16:05:55.019Z,80.35
2018-04-25T16:08:23.104Z,86.70
2018-04-25T16:10:51.779Z,84.18
2018-04-25T16:13:19.808Z,86.37
2018-04-25T16:15:47.717Z,82.88
2018-04-25T16:18:15.680Z,84.50
2018-04-25T16:20:43.652Z,84.93
2018-04-25T16:23:11.521Z,82.95
2018-04-25T16:25:40.918Z,83.55
2018-04-25T16:28:08.712Z,81.40
2018-04-25T16:30:37.365Z,82.68
2018-04-25T16:33:05.233Z,85.70
2018-04-25T16:35:33.098Z,84.32
2018-04-25T16:38:01.065Z,83.87
2018-04-25T16:40:28.901Z,84.10
2018-04-25T16:42:56.755Z,80.87
2018-04-25T16:45:24.770Z,82.55
2018-04-25T16:47:52.654Z,78.78
2018-04-25T16:50:21.228Z,80.80
2018-04-25T16:52:49.022Z,79.95
2018-04-25T16:55:17.601Z,82.70
2018-04-25T16:57:46.149Z,80.82
2018-04-25T17:00:13.945Z,80.43
2018-04-25T17:02:42.559Z,81.35
2018-04-25T17:05:10.344Z,79.62
2018-04-25T17:07:38.127Z,79.93
2018-04-25T17:10:05.919Z,80.30
2018-04-25T17:12:34.462Z,83.12
2018-04-25T17:15:02.349Z,83.57
2018-04-25T17:17:30.920Z,78.82
2018-04-25T17:42:41.599Z,74.32
2018-04-25T17:45:09.505Z,76.22
2018-04-25T17:47:37.271Z,72.85
2018-04-25T17:50:05.432Z,75.35
2018-04-25T17:52:33.410Z,74.45
2018-04-25T17:55:01.224Z,75.25
2018-04-25T17:57:29.211Z,77.75
2018-04-25T17:59:57.181Z,75.28
2018-04-25T18:02:25.056Z,76.57
2018-04-25T18:04:52.938Z,76.78
2018-04-25T18:07:20.811Z,78.62
2018-04-25T18:09:48.775Z,74.72
2018-04-25T18:12:16.595Z,80.90
2018-04-25T18:14:44.358Z,90.95
2018-04-25T18:17:12.485Z,96.28
2018-04-25T18:19:40.337Z,99.10
2018-04-25T18:22:08.161Z,105.72
2018-04-25T18:24:36.073Z,98.30
2018-04-25T18:27:04.004Z,96.97
2018-04-25T18:29:32.008Z,95.05
2018-04-25T18:31:59.978Z,94.10
2018-04-25T18:34:27.959Z,91.37
2018-04-25T18:36:55.814Z,87.30
2018-04-25T18:39:23.677Z,83.80
2018-04-25T18:41:51.648Z,82.78
2018-04-25T18:44:19.513Z,83.68
2018-04-25T18:46:47.377Z,79.78
2018-04-25T18:49:15.261Z,83.32
2018-04-25T18:51:43.218Z,78.00
2018-04-25T18:54:11.078Z,77.20
2018-04-25T18:56:38.943Z,75.18
2018-04-25T18:59:06.813Z,77.55
2018-04-25T19:01:34.610Z,75.05
2018-04-25T19:04:03.262Z,76.18
2018-04-25T19:06:31.126Z,77.95
2018-04-25T19:08:58.951Z,77.57
2018-04-25T19:11:26.710Z,78.47
2018-04-25T19:13:54.623Z,74.53
2018-04-25T19:16:22.491Z,79.03
2018-04-25T19:18:50.562Z,76.12
2018-04-25T19:21:18.425Z,78.40
2018-04-25T19:23:46.289Z,76.90
2018-04-25T19:26:14.161Z,75.00
2018-04-25T19:28:42.227Z,76.53
2018-04-25T19:31:10.311Z,76.55
2018-04-25T19:33:38.316Z,76.12
2018-04-25T19:36:06.345Z,75.43
2018-04-25T19:38:34.530Z,79.55
2018-04-25T19:41:03.315Z,77.45
2018-04-25T19:43:31.699Z,76.22
2018-04-25T19:46:00.517Z,76.05
2018-04-25T19:48:29.060Z,79.20
2018-04-25T19:50:57.821Z,74.82
2018-04-25T19:53:26.366Z,75.62
2018-04-25T19:55:54.811Z,78.03
2018-04-25T19:58:22.885Z,78.78
2018-04-25T20:00:51.235Z,75.87
2018-04-25T20:03:19.253Z,79.55
2018-04-25T20:05:47.926Z,78.77
2018-04-25T20:08:16.587Z,77.80
2018-04-25T20:10:44.552Z,82.87
2018-04-25T20:13:12.520Z,73.12
2018-04-25T20:15:40.503Z,75.90
2018-04-25T20:18:08.459Z,77.65
2018-04-25T20:20:36.425Z,80.05
2018-04-25T20:23:04.496Z,75.35
2018-04-25T20:25:32.471Z,77.07
2018-04-25T20:28:00.540Z,79.12
2018-04-25T20:30:30.043Z,79.65
2018-04-25T20:32:58.008Z,75.82
2018-04-25T20:35:25.875Z,75.62
2018-04-25T20:37:53.743Z,76.18
2018-04-25T20:40:21.608Z,76.35
2018-04-25T20:42:49.478Z,75.68
2018-04-25T20:45:17.340Z,74.78
2018-04-25T20:47:45.166Z,71.75
2018-04-25T20:50:13.182Z,75.97
2018-04-25T20:52:41.042Z,74.80
2018-04-25T20:55:08.908Z,73.15
2018-04-25T20:57:36.776Z,72.85
2018-04-25T21:00:04.742Z,74.80
2018-04-25T21:02:32.622Z,96.30
2018-04-25T21:05:01.294Z,79.45
2018-04-25T21:07:29.160Z,79.57
2018-04-25T21:09:57.082Z,77.03
2018-04-25T21:12:24.992Z,76.37
2018-04-25T21:14:52.871Z,74.70
2018-04-25T21:17:20.729Z,74.03
2018-04-25T21:19:49.204Z,73.78
2018-04-25T21:22:17.175Z,74.32
2018-04-25T21:24:45.249Z,73.18
2018-04-25T21:27:13.217Z,75.60
2018-04-25T21:29:41.180Z,72.78
2018-04-25T21:32:09.006Z,120.45
2018-04-25T21:34:36.914Z,116.25
2018-04-25T21:37:04.782Z,77.05
2018-04-25T21:39:32.647Z,76.97
2018-04-25T21:42:00.513Z,77.10
2018-04-25T21:44:29.208Z,76.60
2018-04-25T21:46:57.062Z,71.87
2018-04-25T21:49:24.933Z,79.10
2018-04-25T21:51:52.796Z,74.50
2018-04-25T21:54:20.665Z,77.37
2018-04-25T21:56:48.631Z,76.37
2018-04-25T21:59:16.499Z,78.93
2018-04-25T22:01:44.370Z,76.95
2018-04-25T22:04:12.333Z,76.45
2018-04-25T22:06:40.166Z,75.32
2018-04-25T22:09:08.063Z,75.72
2018-04-25T22:11:36.343Z,77.43
2018-04-25T22:14:04.208Z,80.97
2018-04-25T22:16:32.157Z,79.47
2018-04-25T22:21:28.931Z,77.30
2018-04-25T22:23:56.800Z,74.18
2018-04-25T22:26:24.664Z,77.57
2018-04-25T22:28:52.529Z,75.60
2018-04-25T22:31:20.553Z,74.40
2018-04-25T22:33:48.473Z,76.03
2018-04-25T22:36:16.336Z,74.10
2018-04-25T22:38:44.200Z,75.75
2018-04-25T22:41:12.165Z,73.60
2018-04-25T22:43:40.033Z,74.90
2018-04-25T22:46:07.983Z,74.97
2018-04-25T22:48:36.686Z,76.50
2018-04-25T22:51:04.552Z,74.85
2018-04-25T22:53:32.419Z,75.80
2018-04-25T22:56:00.390Z,75.00
2018-04-25T22:58:28.379Z,77.22
2018-04-25T23:00:56.221Z,77.43
2018-04-25T23:03:24.192Z,77.32
2018-04-25T23:05:52.059Z,74.43
2018-04-25T23:08:20.037Z,76.25
2018-04-25T23:10:48.001Z,76.82
2018-04-25T23:13:15.813Z,76.65
2018-04-25T23:15:43.694Z,75.70
2018-04-25T23:18:11.693Z,74.12
2018-04-25T23:20:39.663Z,77.43
2018-04-25T23:23:07.734Z,75.50
2018-04-25T23:25:35.664Z,76.18
2018-04-25T23:28:03.568Z,77.15
2018-04-25T23:30:31.434Z,78.87
2018-04-25T23:32:59.512Z,76.57
2018-04-25T23:35:27.373Z,76.82
2018-04-25T23:37:55.194Z,78.07
2018-04-25T23:40:23.103Z,74.70
2018-04-25T23:42:50.972Z,77.70
2018-04-25T23:45:18.837Z,74.82
2018-04-25T23:47:46.702Z,75.90
2018-04-25T23:50:14.572Z,76.45
2018-04-25T23:52:42.439Z,75.60
2018-04-25T23:55:10.405Z,75.05
2018-04-25T23:57:38.272Z,75.35
